Time;durP1;ratioP1;P1;durP2;ratioP2;P2;SDS_P1;SDS_P2;PMS_P1;PMS_P2;Temp;Humidity;BMP_temperature;BMP_pressure;BME280_temperature;BME280_humidity;BME280_pressure;Samples;Min_cycle;Max_cycle;Signal;HPM_P1;HPM_P2
2023/05/22 00:00:36;;;;;;;24.77;19.63;;;18.40;99.90;;;;;;5054349;28;20041;-67
2023/05/22 00:03:02;;;;;;;27.23;20.35;;;18.40;99.90;;;;;;5053916;28;20041;-67
2023/05/22 00:05:29;;;;;;;30.85;22.75;;;18.30;99.90;;;;;;5055258;28;20080;-67
2023/05/22 00:07:55;;;;;;;30.60;21.67;;;18.20;99.90;;;;;;5052606;28;20111;-67
2023/05/22 00:10:21;;;;;;;28.30;19.45;;;18.50;99.90;;;;;;5053944;28;20580;-67
2023/05/22 00:12:46;;;;;;;33.30;23.65;;;18.50;99.90;;;;;;5052387;28;20051;-66
2023/05/22 00:15:12;;;;;;;31.25;21.05;;;18.40;99.90;;;;;;5053998;28;20037;-66
2023/05/22 00:17:38;;;;;;;32.08;23.52;;;18.20;99.90;;;;;;5053740;28;20064;-66
2023/05/22 00:20:06;;;;;;;26.35;20.90;;;18.40;99.90;;;;;;5052640;28;20052;-66
2023/05/22 00:22:34;;;;;;;28.13;22.15;;;18.20;99.90;;;;;;5052593;28;20511;-66
2023/05/22 00:25:04;;;;;;;30.85;22.15;;;18.20;99.90;;;;;;5052118;28;20045;-67
2023/05/22 00:27:29;;;;;;;32.42;22.17;;;18.20;99.90;;;;;;5053211;28;20048;-67
2023/05/22 00:29:55;;;;;;;25.88;21.27;;;18.30;99.90;;;;;;5053564;28;20045;-67
2023/05/22 00:32:21;;;;;;;28.85;21.77;;;18.20;99.90;;;;;;5052169;28;20044;-67
2023/05/22 00:34:46;;;;;;;32.58;23.50;;;18.10;99.90;;;;;;5053889;28;20117;-67
2023/05/22 00:37:12;;;;;;;31.30;22.80;;;18.20;99.90;;;;;;5035631;28;20041;-67
2023/05/22 00:39:37;;;;;;;32.30;22.05;;;18.50;99.90;;;;;;5053628;28;20037;-67
2023/05/22 00:42:03;;;;;;;30.27;21.85;;;18.10;99.90;;;;;;5054215;28;20540;-67
2023/05/22 00:44:29;;;;;;;27.23;22.45;;;18.10;99.90;;;;;;5052182;28;20459;-67
2023/05/22 00:46:55;;;;;;;32.38;23.42;;;18.40;99.90;;;;;;5053284;28;20471;-67
2023/05/22 00:49:21;;;;;;;27.92;21.60;;;18.20;99.90;;;;;;5053438;28;20040;-67
2023/05/22 00:51:47;;;;;;;30.85;22.55;;;18.30;99.90;;;;;;5053179;28;20041;-67
2023/05/22 00:54:14;;;;;;;30.38;22.27;;;18.30;99.90;;;;;;5053407;28;20131;-68
2023/05/22 00:56:40;;;;;;;33.33;22.35;;;18.40;99.90;;;;;;5053177;28;20040;-67
2023/05/22 00:59:06;;;;;;;35.38;24.58;;;18.20;99.90;;;;;;5052858;28;20037;-67
2023/05/22 01:01:37;;;;;;;27.50;22.35;;;18.40;99.90;;;;;;5053086;28;20033;-66
2023/05/22 01:04:06;;;;;;;36.70;25.20;;;18.10;99.90;;;;;;5052127;28;20536;-67
2023/05/22 01:06:32;;;;;;;29.50;22.33;;;18.20;99.90;;;;;;5053002;28;20143;-66
2023/05/22 01:08:58;;;;;;;32.13;23.42;;;18.30;99.90;;;;;;5052944;28;20524;-67
2023/05/22 01:12:10;;;;;;;37.38;23.83;;;18.10;99.90;;;;;;5052959;28;20404;-67
2023/05/22 01:14:54;;;;;;;33.85;23.27;;;18.10;99.90;;;;;;5051226;28;20057;-67
2023/05/22 01:17:45;;;;;;;33.28;23.65;;;17.90;99.90;;;;;;5052639;28;20052;-67
2023/05/22 01:20:27;;;;;;;39.70;27.38;;;18.00;99.90;;;;;;5052805;28;20447;-67
2023/05/22 01:23:13;;;;;;;34.80;26.05;;;18.00;99.90;;;;;;5051545;28;20051;-67
2023/05/22 01:26:17;;;;;;;35.38;25.60;;;18.00;99.90;;;;;;5051730;28;20045;-67
2023/05/22 01:28:51;;;;;;;36.50;26.67;;;17.70;99.90;;;;;;5052703;28;20037;-67
2023/05/22 01:31:18;;;;;;;34.50;26.25;;;17.90;99.90;;;;;;5052534;28;20045;-67
2023/05/22 01:33:50;;;;;;;36.28;26.65;;;18.00;99.90;;;;;;5053377;28;20036;-67
2023/05/22 01:36:21;;;;;;;34.70;25.25;;;17.40;99.90;;;;;;5051051;28;20048;-67
2023/05/22 01:38:47;;;;;;;37.60;28.00;;;17.80;99.90;;;;;;5051329;28;20041;-67
2023/05/22 01:41:15;;;;;;;41.42;27.70;;;17.90;99.90;;;;;;5052142;28;20506;-67
2023/05/22 01:43:41;;;;;;;40.38;28.65;;;18.10;99.90;;;;;;5050898;28;20068;-67
2023/05/22 01:46:07;;;;;;;37.53;27.00;;;18.10;99.90;;;;;;5052861;28;20496;-67
2023/05/22 01:48:34;;;;;;;43.40;28.27;;;17.80;99.90;;;;;;5052340;28;20091;-67
2023/05/22 01:51:04;;;;;;;42.45;31.42;;;18.00;99.90;;;;;;5062796;28;20040;-67
2023/05/22 01:53:38;;;;;;;39.15;29.77;;;17.50;99.90;;;;;;5071437;28;20101;-67
2023/05/22 01:56:19;;;;;;;35.75;29.38;;;17.60;99.90;;;;;;5072278;28;20036;-67
2023/05/22 01:59:13;;;;;;;43.60;31.15;;;17.80;99.90;;;;;;5050673;28;20181;-67
2023/05/22 02:01:40;;;;;;;44.42;32.40;;;18.10;99.90;;;;;;5050310;28;20400;-66
2023/05/22 02:04:08;;;;;;;43.63;28.98;;;17.90;99.90;;;;;;5050932;28;20068;-67
2023/05/22 02:06:34;;;;;;;42.97;29.50;;;17.90;99.90;;;;;;5050474;28;20072;-67
2023/05/22 02:09:01;;;;;;;36.72;28.45;;;17.50;99.90;;;;;;5051439;28;20045;-67
2023/05/22 02:11:29;;;;;;;35.08;28.58;;;17.90;99.90;;;;;;5051856;28;20400;-67
2023/05/22 02:13:56;;;;;;;37.45;27.88;;;18.10;99.90;;;;;;5051604;28;20041;-67
2023/05/22 02:16:22;;;;;;;37.45;30.95;;;17.80;99.90;;;;;;5050487;28;20500;-67
2023/05/22 02:18:48;;;;;;;44.35;32.17;;;17.90;99.90;;;;;;5051867;28;20115;-67
2023/05/22 02:21:14;;;;;;;40.38;28.95;;;17.60;99.90;;;;;;5050453;28;20128;-67
2023/05/22 02:23:40;;;;;;;38.90;30.98;;;17.90;99.90;;;;;;5051599;28;20145;-67
2023/05/22 02:26:05;;;;;;;39.75;29.45;;;18.00;99.90;;;;;;5052739;28;20044;-67
2023/05/22 02:28:31;;;;;;;40.15;28.52;;;17.80;99.90;;;;;;5051702;28;20048;-67
2023/05/22 02:30:57;;;;;;;40.35;31.75;;;18.00;99.90;;;;;;5050340;28;20053;-67
2023/05/22 02:33:23;;;;;;;42.10;31.40;;;17.40;99.90;;;;;;5049742;28;20059;-67
2023/05/22 02:35:48;;;;;;;41.08;31.13;;;17.60;99.90;;;;;;5051704;28;20048;-66
2023/05/22 02:38:14;;;;;;;41.92;29.85;;;17.60;99.90;;;;;;5051528;28;20564;-67
2023/05/22 02:40:39;;;;;;;41.53;30.30;;;17.50;99.90;;;;;;5050285;28;20112;-67
2023/05/22 02:43:05;;;;;;;43.05;30.48;;;18.00;99.90;;;;;;5052286;28;20178;-67
2023/05/22 02:45:31;;;;;;;41.55;30.17;;;17.80;99.90;;;;;;5050160;28;20079;-67
2023/05/22 02:47:58;;;;;;;40.38;31.05;;;18.00;99.90;;;;;;5049789;28;20045;-67
2023/05/22 02:50:24;;;;;;;37.55;30.52;;;18.00;99.90;;;;;;5053477;28;20052;-67
2023/05/22 02:52:50;;;;;;;36.85;30.52;;;17.80;99.90;;;;;;5055399;28;20563;-67
2023/05/22 02:55:16;;;;;;;38.58;30.85;;;17.50;99.90;;;;;;5055469;28;20040;-66
2023/05/22 02:57:41;;;;;;;41.33;31.02;;;17.40;99.90;;;;;;5055375;28;20086;-67
2023/05/22 03:00:10;;;;;;;43.42;31.85;;;18.00;99.90;;;;;;5056298;28;20124;-67
2023/05/22 03:02:38;;;;;;;39.03;29.02;;;17.40;99.90;;;;;;5053429;28;20094;-67
2023/05/22 03:05:05;;;;;;;37.85;29.70;;;17.50;99.90;;;;;;5055273;28;20037;-67
2023/05/22 03:07:31;;;;;;;40.75;30.73;;;17.30;99.90;;;;;;5055092;28;20394;-67
2023/05/22 03:09:57;;;;;;;40.25;30.48;;;17.80;99.90;;;;;;5055231;28;20048;-67
2023/05/22 03:12:22;;;;;;;37.65;28.55;;;17.80;99.90;;;;;;5053908;28;20051;-67
2023/05/22 03:14:48;;;;;;;38.22;29.10;;;17.20;99.90;;;;;;5053869;28;20121;-67
2023/05/22 03:17:14;;;;;;;38.97;30.10;;;17.40;99.90;;;;;;5052880;28;20507;-67
2023/05/22 03:19:40;;;;;;;37.75;30.45;;;17.60;99.90;;;;;;5056287;28;20044;-67
2023/05/22 03:22:06;;;;;;;35.88;27.90;;;17.40;99.90;;;;;;5052885;28;20060;-67
2023/05/22 03:24:31;;;;;;;37.55;29.50;;;17.40;99.90;;;;;;5054826;28;20041;-67
2023/05/22 03:26:58;;;;;;;39.85;29.63;;;17.10;99.90;;;;;;5053355;28;20040;-67
2023/05/22 03:29:23;;;;;;;40.67;29.52;;;17.80;99.90;;;;;;5053780;28;20041;-67
2023/05/22 03:31:49;;;;;;;40.17;31.08;;;17.60;99.90;;;;;;5058513;28;20120;-67
2023/05/22 03:34:15;;;;;;;38.88;31.15;;;17.40;99.90;;;;;;5073533;28;20051;-67
2023/05/22 03:36:41;;;;;;;37.25;31.02;;;17.50;99.90;;;;;;5071692;28;20132;-67
2023/05/22 03:39:06;;;;;;;41.63;31.02;;;17.70;99.90;;;;;;5073124;28;20131;-67
2023/05/22 03:41:32;;;;;;;40.75;32.28;;;17.60;99.90;;;;;;5072792;28;20055;-67
2023/05/22 03:43:58;;;;;;;41.70;32.28;;;17.40;99.90;;;;;;5072989;28;20460;-67
2023/05/22 03:46:23;;;;;;;46.50;32.75;;;17.00;99.90;;;;;;5074472;28;20040;-67
2023/05/22 03:48:49;;;;;;;47.00;33.30;;;17.20;99.90;;;;;;5073430;28;20075;-67
2023/05/22 03:51:15;;;;;;;44.35;34.05;;;17.60;99.90;;;;;;5073060;28;20051;-66
2023/05/22 03:53:40;;;;;;;48.20;35.20;;;16.70;99.90;;;;;;5071188;28;20453;-67
2023/05/22 03:56:06;;;;;;;46.80;34.75;;;16.80;99.90;;;;;;5074264;28;20033;-67
2023/05/22 03:58:32;;;;;;;50.40;35.20;;;17.30;99.90;;;;;;5074269;28;20039;-67
2023/05/22 04:00:59;;;;;;;47.50;35.63;;;17.30;99.90;;;;;;5074355;28;20454;-66
2023/05/22 04:03:25;;;;;;;46.17;34.75;;;17.20;99.90;;;;;;5072894;28;20055;-68
2023/05/22 04:05:51;;;;;;;50.45;34.88;;;17.00;99.90;;;;;;5056475;28;20044;-67
2023/05/22 04:08:17;;;;;;;51.35;34.95;;;16.80;99.90;;;;;;5073520;28;20040;-67
2023/05/22 04:10:45;;;;;;;47.33;36.00;;;17.40;99.90;;;;;;5071784;28;20127;-67
2023/05/22 04:13:12;;;;;;;44.45;34.08;;;17.50;99.90;;;;;;5072164;28;20492;-67
2023/05/22 04:15:40;;;;;;;48.13;35.15;;;16.90;99.90;;;;;;5073972;28;20444;-67
2023/05/22 04:18:06;;;;;;;49.28;32.85;;;16.90;99.90;;;;;;5074037;28;20049;-68
2023/05/22 04:20:32;;;;;;;46.25;33.50;;;16.80;99.90;;;;;;5072695;28;20036;-67
2023/05/22 04:22:57;;;;;;;43.33;33.28;;;16.80;99.90;;;;;;5073706;28;20127;-67
2023/05/22 04:25:23;;;;;;;47.58;32.95;;;17.10;99.90;;;;;;5055884;28;20051;-67
2023/05/22 04:27:49;;;;;;;47.70;33.03;;;17.50;99.90;;;;;;5072533;28;20044;-68
2023/05/22 04:30:15;;;;;;;48.40;33.83;;;17.40;99.90;;;;;;5072138;28;20047;-66
2023/05/22 04:32:42;;;;;;;46.03;32.72;;;17.10;99.90;;;;;;5072212;28;20036;-67
2023/05/22 04:35:11;;;;;;;41.58;30.90;;;17.70;99.90;;;;;;5073492;28;20047;-67
2023/05/22 04:37:39;;;;;;;41.05;31.30;;;16.90;99.90;;;;;;5055915;28;20092;-68
2023/05/22 04:40:10;;;;;;;44.45;32.38;;;17.60;99.90;;;;;;5072429;28;20087;-67
2023/05/22 04:42:37;;;;;;;42.90;31.65;;;17.10;99.90;;;;;;5072074;28;20045;-67
2023/05/22 04:45:03;;;;;;;43.35;31.52;;;17.50;99.90;;;;;;5071371;28;20045;-67
2023/05/22 04:47:30;;;;;;;39.50;29.38;;;17.60;99.90;;;;;;5070215;28;20388;-67
2023/05/22 04:49:57;;;;;;;52.13;30.38;;;17.30;99.90;;;;;;5073152;28;20087;-67
2023/05/22 04:52:23;;;;;;;40.97;30.17;;;17.70;99.90;;;;;;5071658;28;20040;-67
2023/05/22 04:54:50;;;;;;;44.58;29.70;;;17.60;99.90;;;;;;5072935;28;20053;-67
2023/05/22 04:57:16;;;;;;;50.60;32.35;;;17.50;99.90;;;;;;5071875;28;20381;-67
2023/05/22 04:59:41;;;;;;;42.53;30.52;;;17.20;99.90;;;;;;5073112;28;20093;-67
2023/05/22 05:02:07;;;;;;;47.55;30.05;;;17.90;99.90;;;;;;5073016;28;20040;-67
2023/05/22 05:04:33;;;;;;;45.83;31.92;;;17.70;99.90;;;;;;5059104;28;20139;-67
2023/05/22 05:06:58;;;;;;;46.45;30.52;;;17.80;99.90;;;;;;5051864;28;20128;-68
2023/05/22 05:09:24;;;;;;;45.78;33.03;;;17.20;99.90;;;;;;5052553;28;20550;-67
2023/05/22 05:11:51;;;;;;;48.88;31.90;;;17.40;99.90;;;;;;5052235;28;20574;-66
2023/05/22 05:14:16;;;;;;;44.25;30.05;;;16.90;99.90;;;;;;5053008;28;20044;-67
2023/05/22 05:16:42;;;;;;;40.25;28.58;;;17.00;99.90;;;;;;5051666;28;20036;-67
2023/05/22 05:19:08;;;;;;;38.30;28.58;;;17.40;99.90;;;;;;5052907;28;20092;-67
2023/05/22 05:21:33;;;;;;;35.72;26.65;;;17.60;99.90;;;;;;5052604;28;20523;-65
2023/05/22 05:23:59;;;;;;;38.78;26.10;;;17.10;99.90;;;;;;5052669;28;20120;-67
2023/05/22 05:26:25;;;;;;;33.78;23.08;;;17.40;99.90;;;;;;5051343;28;20037;-68
2023/05/22 05:28:51;;;;;;;35.50;22.80;;;17.30;99.90;;;;;;5065623;28;20028;-67
2023/05/22 05:31:18;;;;;;;34.10;19.10;;;17.00;99.90;;;;;;5071990;28;20048;-66
2023/05/22 05:33:43;;;;;;;28.75;16.30;;;17.00;99.90;;;;;;5072219;28;20079;-67
2023/05/22 05:36:09;;;;;;;26.33;13.45;;;17.30;99.90;;;;;;5070886;28;20064;-66
2023/05/22 05:38:35;;;;;;;22.65;12.13;;;16.70;99.90;;;;;;5068330;28;20146;-68
2023/05/22 05:41:01;;;;;;;31.42;13.23;;;17.30;99.90;;;;;;5060500;28;20044;-70
2023/05/22 05:43:27;;;;;;;28.15;12.95;;;16.90;99.90;;;;;;5054730;28;20033;-70
2023/05/22 05:45:52;;;;;;;27.08;12.52;;;16.80;99.90;;;;;;5050838;28;20045;-67
2023/05/22 05:48:21;;;;;;;24.73;11.15;;;17.00;99.90;;;;;;5050800;28;20074;-67
2023/05/22 05:50:46;;;;;;;31.55;13.68;;;16.70;99.90;;;;;;5057242;28;20048;-67
2023/05/22 05:53:12;;;;;;;29.70;12.75;;;17.20;99.90;;;;;;5064214;28;20044;-67
2023/05/22 05:55:38;;;;;;;23.92;10.95;;;16.90;99.90;;;;;;5068597;28;20391;-66
2023/05/22 05:58:03;;;;;;;24.60;10.02;;;17.10;99.90;;;;;;5057675;28;20037;-67
2023/05/22 06:00:29;;;;;;;19.02;10.85;;;16.80;99.90;;;;;;5066672;28;20686;-68
2023/05/22 06:02:55;;;;;;;26.27;9.90;;;16.90;99.90;;;;;;5054066;28;20450;-67
2023/05/22 06:05:21;;;;;;;27.20;10.77;;;16.80;99.90;;;;;;5067064;28;20040;-67
2023/05/22 06:07:47;;;;;;;15.43;9.15;;;16.80;99.90;;;;;;5061891;28;20102;-67
2023/05/22 06:10:13;;;;;;;20.70;9.68;;;16.90;99.90;;;;;;5061473;28;20041;-67
2023/05/22 06:12:40;;;;;;;17.90;9.07;;;17.00;99.90;;;;;;5060391;28;20037;-66
2023/05/22 06:15:07;;;;;;;18.15;9.13;;;17.00;99.90;;;;;;5058053;28;20040;-68
2023/05/22 06:17:33;;;;;;;18.88;8.98;;;17.00;99.90;;;;;;5055295;28;20045;-67
2023/05/22 06:19:59;;;;;;;19.55;9.02;;;17.10;99.90;;;;;;5047168;28;20044;-67
2023/05/22 06:22:25;;;;;;;23.73;10.38;;;17.00;99.90;;;;;;5049332;28;20050;-66
2023/05/22 06:24:53;;;;;;;19.67;10.40;;;17.30;99.90;;;;;;5052610;28;20037;-67
2023/05/22 06:27:21;;;;;;;18.13;10.27;;;17.20;99.90;;;;;;5051585;28;20040;-68
2023/05/22 06:29:48;;;;;;;22.92;10.32;;;17.50;99.90;;;;;;5053343;28;20125;-68
2023/05/22 06:32:13;;;;;;;21.88;10.30;;;17.40;99.90;;;;;;5064128;28;20075;-67
2023/05/22 06:34:39;;;;;;;22.35;10.55;;;17.30;99.90;;;;;;5067707;28;20063;-68
2023/05/22 06:37:05;;;;;;;17.48;9.45;;;17.30;99.90;;;;;;5048939;28;20285;-68
2023/05/22 06:39:31;;;;;;;18.63;9.00;;;17.20;99.90;;;;;;5055076;28;20094;-65
2023/05/22 06:41:56;;;;;;;22.38;9.63;;;17.40;99.90;;;;;;5052275;28;20435;-67
2023/05/22 06:44:24;;;;;;;21.45;9.13;;;17.30;99.90;;;;;;5048166;28;20041;-68
2023/05/22 06:46:51;;;;;;;24.20;9.73;;;17.40;99.90;;;;;;5047960;28;20115;-68
2023/05/22 06:49:16;;;;;;;17.98;8.45;;;17.90;99.90;;;;;;5052085;28;20390;-67
2023/05/22 06:51:42;;;;;;;17.45;8.73;;;17.60;99.90;;;;;;5054445;28;20099;-68
2023/05/22 06:54:11;;;;;;;17.92;8.40;;;17.60;99.90;;;;;;5052641;28;20804;-68
2023/05/22 06:56:36;;;;;;;16.25;8.30;;;17.60;99.90;;;;;;5050212;28;20049;-68
2023/05/22 06:59:02;;;;;;;19.10;9.40;;;17.70;99.90;;;;;;5049129;28;20886;-67
2023/05/22 07:01:28;;;;;;;22.63;9.50;;;17.70;99.90;;;;;;5040621;28;20068;-67
2023/05/22 07:03:56;;;;;;;20.58;10.43;;;17.50;99.90;;;;;;5049884;28;20456;-67
2023/05/22 07:06:23;;;;;;;21.08;9.07;;;17.80;99.90;;;;;;5040753;28;20059;-67
2023/05/22 07:08:50;;;;;;;28.17;9.35;;;17.70;99.90;;;;;;5050432;28;20033;-67
2023/05/22 07:11:15;;;;;;;20.35;8.95;;;17.70;99.90;;;;;;5048350;28;20037;-68
2023/05/22 07:13:41;;;;;;;27.42;11.30;;;17.80;99.90;;;;;;5056567;28;20040;-66
2023/05/22 07:16:07;;;;;;;16.08;9.43;;;17.80;99.90;;;;;;5048178;28;20040;-65
2023/05/22 07:18:32;;;;;;;17.13;8.90;;;17.60;99.90;;;;;;5045414;28;20044;-67
2023/05/22 07:20:58;;;;;;;18.42;9.43;;;18.00;99.90;;;;;;5062663;28;20052;-68
2023/05/22 07:23:23;;;;;;;18.90;9.52;;;18.10;99.90;;;;;;5051196;28;20043;-68
2023/05/22 07:25:49;;;;;;;16.52;8.55;;;18.00;99.90;;;;;;5049191;28;20048;-68
2023/05/22 07:28:15;;;;;;;13.75;8.18;;;17.90;99.90;;;;;;5057749;28;20041;-67
2023/05/22 07:30:40;;;;;;;17.63;8.70;;;17.90;99.90;;;;;;5051672;28;20094;-68
2023/05/22 07:33:06;;;;;;;11.23;7.13;;;18.00;99.90;;;;;;5054981;28;20128;-68
2023/05/22 07:35:32;;;;;;;18.35;7.68;;;18.20;99.90;;;;;;5070287;28;20040;-67
2023/05/22 07:37:57;;;;;;;12.63;7.55;;;18.10;99.90;;;;;;5058108;28;20051;-67
2023/05/22 07:40:23;;;;;;;15.80;7.05;;;17.90;99.90;;;;;;5073401;28;20089;-67
2023/05/22 07:42:48;;;;;;;19.20;6.30;;;18.00;99.90;;;;;;5073101;28;20499;-67
2023/05/22 07:45:14;;;;;;;12.50;6.38;;;18.00;99.90;;;;;;5065889;28;20045;-67
2023/05/22 07:47:40;;;;;;;11.88;6.57;;;18.10;99.90;;;;;;5073557;28;20036;-67
2023/05/22 07:50:06;;;;;;;17.75;7.10;;;18.50;99.90;;;;;;5058641;28;20048;-68
2023/05/22 07:52:32;;;;;;;13.27;6.15;;;18.20;99.90;;;;;;5058936;28;20124;-67
2023/05/22 07:54:57;;;;;;;11.82;6.00;;;18.20;99.90;;;;;;5061283;28;20112;-67
2023/05/22 07:57:23;;;;;;;12.32;6.25;;;18.10;99.90;;;;;;5061052;28;20690;-68
2023/05/22 07:59:49;;;;;;;10.77;5.95;;;18.40;99.90;;;;;;5070606;28;20110;-68
2023/05/22 08:02:16;;;;;;;13.73;5.40;;;18.20;99.90;;;;;;5072027;28;20040;-67
2023/05/22 08:04:43;;;;;;;13.60;5.70;;;18.20;99.90;;;;;;5056884;28;20567;-65
2023/05/22 08:07:09;;;;;;;7.25;5.25;;;18.30;99.90;;;;;;5054857;28;20485;-68
2023/05/22 08:09:35;;;;;;;9.45;5.38;;;18.30;99.90;;;;;;5061620;28;20063;-66
2023/05/22 08:12:01;;;;;;;13.05;5.70;;;18.40;99.90;;;;;;5072111;28;20504;-68
2023/05/22 08:14:27;;;;;;;9.20;5.43;;;18.50;99.90;;;;;;5052883;28;20045;-67
2023/05/22 08:16:53;;;;;;;10.63;5.28;;;18.40;99.90;;;;;;5051230;28;20462;-68
2023/05/22 08:19:18;;;;;;;8.80;4.70;;;18.40;99.90;;;;;;5051791;28;20040;-72
2023/05/22 08:21:44;;;;;;;9.13;5.22;;;18.80;99.90;;;;;;5055303;28;20032;-72
2023/05/22 08:24:09;;;;;;;9.20;4.70;;;18.60;99.90;;;;;;5054803;28;20037;-72
2023/05/22 08:26:35;;;;;;;7.30;5.05;;;18.70;99.90;;;;;;5071090;28;20514;-72
2023/05/22 08:29:01;;;;;;;9.90;5.28;;;19.00;99.90;;;;;;5049297;28;20444;-73
2023/05/22 08:31:28;;;;;;;8.40;4.97;;;18.70;99.90;;;;;;5050566;28;20118;-72
2023/05/22 08:34:00;;;;;;;8.77;5.53;;;19.00;99.90;;;;;;5041667;28;20078;-72
2023/05/22 08:36:32;;;;;;;9.68;5.15;;;19.10;99.90;;;;;;5068979;28;20357;-73
2023/05/22 08:39:00;;;;;;;8.52;4.90;;;19.30;99.90;;;;;;5050975;28;20041;-72
2023/05/22 08:41:26;;;;;;;8.82;5.38;;;19.20;99.90;;;;;;5067240;28;20389;-72
2023/05/22 08:43:51;;;;;;;13.07;5.80;;;19.30;99.90;;;;;;5071639;28;20086;-72
2023/05/22 08:46:18;;;;;;;8.60;5.57;;;19.20;99.90;;;;;;5062402;28;20431;-72
2023/05/22 08:48:44;;;;;;;10.82;6.25;;;19.20;99.90;;;;;;5050678;28;20060;-72
2023/05/22 08:51:13;;;;;;;10.15;6.10;;;19.20;99.90;;;;;;5053876;28;20055;-72
2023/05/22 08:53:41;;;;;;;9.20;6.57;;;19.50;99.90;;;;;;5064616;28;20037;-73
2023/05/22 08:56:07;;;;;;;12.20;7.35;;;19.60;99.90;;;;;;5065748;28;20048;-73
2023/05/22 08:58:37;;;;;;;12.32;6.95;;;20.00;99.90;;;;;;5036422;28;20047;-73
2023/05/22 09:01:05;;;;;;;15.50;7.70;;;20.00;99.90;;;;;;5066394;28;20072;-73
2023/05/22 09:03:34;;;;;;;10.75;6.57;;;19.90;99.90;;;;;;5058699;28;20048;-67
2023/05/22 09:06:00;;;;;;;8.73;6.38;;;19.70;99.90;;;;;;5068102;28;20565;-69
2023/05/22 09:08:27;;;;;;;11.98;7.22;;;19.80;99.90;;;;;;5067534;28;20044;-68
2023/05/22 09:10:56;;;;;;;9.85;6.82;;;19.60;99.90;;;;;;5065506;28;20463;-69
2023/05/22 09:13:27;;;;;;;12.52;7.00;;;19.60;99.90;;;;;;5048550;28;20099;-67
2023/05/22 09:15:58;;;;;;;13.35;7.88;;;19.60;99.90;;;;;;5052582;28;20435;-69
2023/05/22 09:18:26;;;;;;;11.30;7.13;;;19.60;99.90;;;;;;5058075;28;20052;-69
2023/05/22 09:20:52;;;;;;;16.40;8.20;;;19.40;99.90;;;;;;5051721;28;20040;-67
2023/05/22 09:23:18;;;;;;;20.95;8.65;;;19.70;99.90;;;;;;5059515;28;20507;-68
2023/05/22 09:25:45;;;;;;;14.43;8.95;;;19.70;99.90;;;;;;5055503;28;20110;-66
2023/05/22 09:28:11;;;;;;;12.75;7.95;;;19.70;99.90;;;;;;5059945;28;20059;-67
2023/05/22 09:30:37;;;;;;;14.95;8.75;;;19.90;99.90;;;;;;5058083;28;20037;-67
2023/05/22 09:33:03;;;;;;;13.07;7.88;;;19.90;99.90;;;;;;5058009;28;20037;-68
2023/05/22 09:35:31;;;;;;;11.02;8.45;;;19.90;99.90;;;;;;5059413;28;20114;-67
2023/05/22 09:37:57;;;;;;;12.05;8.85;;;20.00;99.90;;;;;;5058997;28;20045;-68
2023/05/22 09:40:25;;;;;;;12.95;9.15;;;20.30;99.90;;;;;;5056114;28;20508;-67
2023/05/22 09:42:51;;;;;;;15.32;9.10;;;20.00;99.90;;;;;;5054896;28;20084;-68
2023/05/22 09:45:20;;;;;;;13.40;10.65;;;20.20;99.90;;;;;;5060541;28;20067;-67
2023/05/22 09:47:49;;;;;;;12.10;8.55;;;20.30;99.90;;;;;;5057564;28;20114;-68
2023/05/22 09:50:15;;;;;;;12.68;9.40;;;20.40;99.90;;;;;;5055362;28;20072;-67
2023/05/22 09:52:43;;;;;;;16.27;8.73;;;20.30;99.90;;;;;;5056987;28;20143;-68
2023/05/22 09:55:09;;;;;;;14.30;9.13;;;20.70;99.90;;;;;;5050562;28;20033;-67
2023/05/22 09:57:45;;;;;;;19.60;10.65;;;20.70;99.90;;;;;;5064584;28;20040;-68
2023/05/22 10:00:13;;;;;;;12.25;10.05;;;20.70;99.90;;;;;;5071067;28;20400;-67
2023/05/22 10:02:44;;;;;;;12.50;9.70;;;20.70;99.90;;;;;;5070173;28;20040;-67
2023/05/22 10:05:11;;;;;;;22.02;10.00;;;20.70;99.90;;;;;;5071603;28;20128;-68
2023/05/22 10:07:46;;;;;;;14.38;10.18;;;20.80;99.90;;;;;;5071399;28;20041;-68
2023/05/22 10:10:14;;;;;;;12.68;10.25;;;20.90;99.90;;;;;;5060302;28;20501;-67
2023/05/22 10:12:48;;;;;;;12.45;9.60;;;20.70;99.90;;;;;;5049823;28;20040;-68
2023/05/22 10:15:16;;;;;;;13.65;10.45;;;20.90;99.90;;;;;;5059906;28;20107;-66
2023/05/22 10:17:43;;;;;;;14.32;9.35;;;20.90;99.90;;;;;;5069769;28;20040;-68
2023/05/22 10:20:09;;;;;;;12.25;9.88;;;21.00;99.90;;;;;;5070353;28;20112;-68
2023/05/22 10:22:36;;;;;;;14.90;9.65;;;21.30;99.90;;;;;;5063234;28;20051;-68
2023/05/22 10:25:03;;;;;;;17.42;10.20;;;21.40;99.90;;;;;;5068623;28;20528;-67
2023/05/22 10:27:29;;;;;;;15.65;9.40;;;;;;;;;;5056649;28;20136;-69
2023/05/22 10:30:19;;;;;;;15.15;10.30;;;21.80;99.90;;;;;;5061615;28;20490;-68
2023/05/22 10:33:17;;;;;;;15.85;11.07;;;21.70;99.90;;;;;;5060648;28;20041;-68
2023/05/22 10:36:02;;;;;;;16.23;10.95;;;21.50;99.90;;;;;;5054618;28;20037;-68
2023/05/22 10:38:54;;;;;;;14.18;9.80;;;22.30;99.90;;;;;;5068059;28;20075;-67
2023/05/22 10:41:21;;;;;;;15.43;11.18;;;21.50;99.90;;;;;;5064099;28;20519;-68
2023/05/22 10:43:50;;;;;;;16.83;10.52;;;21.50;99.90;;;;;;5066717;28;20045;-66
2023/05/22 10:46:16;;;;;;;15.40;11.73;;;21.60;99.90;;;;;;5066250;28;20172;-68
2023/05/22 10:48:47;;;;;;;14.30;10.15;;;22.50;99.90;;;;;;5058189;28;20041;-67
2023/05/22 10:51:18;;;;;;;14.82;10.77;;;21.60;99.90;;;;;;5049121;28;20045;-68
2023/05/22 10:53:44;;;;;;;16.73;11.68;;;21.50;99.90;;;;;;5066799;28;20036;-67
2023/05/22 10:56:14;;;;;;;19.77;11.55;;;22.30;99.90;;;;;;5064355;28;20029;-68
2023/05/22 10:58:43;;;;;;;12.80;10.07;;;21.70;99.90;;;;;;5058352;28;20029;-68
2023/05/22 11:01:19;;;;;;;13.30;10.18;;;22.30;99.90;;;;;;5058755;28;20044;-68
2023/05/22 11:03:55;;;;;;;17.52;11.80;;;22.10;99.90;;;;;;5069005;28;20388;-67
2023/05/22 11:06:40;;;;;;;12.50;10.15;;;23.00;99.90;;;;;;5056175;28;20048;-68
2023/05/22 11:09:18;;;;;;;13.82;11.18;;;22.40;99.90;;;;;;5049146;28;20060;-68
2023/05/22 11:11:44;;;;;;;15.85;11.20;;;22.20;99.90;;;;;;5064258;28;20127;-68
2023/05/22 11:14:14;;;;;;;18.35;12.63;;;22.40;99.90;;;;;;5063801;28;20036;-68
2023/05/22 11:16:40;;;;;;;15.68;11.63;;;22.70;99.90;;;;;;5073286;28;20039;-68
2023/05/22 11:19:07;;;;;;;14.95;11.90;;;22.70;99.90;;;;;;5072957;28;20032;-68
2023/05/22 11:21:51;;;;;;;16.00;10.32;;;22.30;99.90;;;;;;5072715;28;20074;-68
2023/05/22 11:24:17;;;;;;;12.25;10.02;;;23.80;99.90;;;;;;5067226;28;20579;-68
2023/05/22 11:26:43;;;;;;;18.80;12.38;;;22.80;99.90;;;;;;5073621;28;20123;-68
2023/05/22 11:29:09;;;;;;;15.70;11.00;;;22.90;99.90;;;;;;5072527;28;20033;-68
2023/05/22 11:31:38;;;;;;;14.85;11.13;;;20.70;99.90;;;;;;5072420;28;20032;-68
2023/05/22 11:34:04;;;;;;;18.83;12.82;;;22.60;99.90;;;;;;5072806;28;20098;-69
2023/05/22 11:36:30;;;;;;;15.65;11.25;;;23.70;99.90;;;;;;5073101;28;20048;-68
2023/05/22 11:38:57;;;;;;;16.02;11.45;;;23.00;99.90;;;;;;5055940;28;20063;-69
2023/05/22 11:41:23;;;;;;;17.33;12.55;;;23.10;99.90;;;;;;5073330;28;20048;-69
2023/05/22 11:43:48;;;;;;;16.15;11.63;;;23.80;99.90;;;;;;5073455;28;20049;-69
2023/05/22 11:46:14;;;;;;;18.13;12.55;;;23.10;99.90;;;;;;5056006;28;20112;-69
2023/05/22 11:48:43;;;;;;;16.30;11.90;;;23.40;99.90;;;;;;5073025;28;20041;-69
2023/05/22 11:51:09;;;;;;;16.77;11.85;;;22.90;99.90;;;;;;5073773;28;20041;-69
2023/05/22 11:53:35;;;;;;;16.23;12.30;;;23.20;99.90;;;;;;5056248;28;20063;-69
2023/05/22 11:56:02;;;;;;;16.83;13.15;;;23.30;99.90;;;;;;5054515;28;20033;-69
2023/05/22 11:58:28;;;;;;;14.70;11.52;;;23.00;99.90;;;;;;5066524;28;20085;-68
2023/05/22 12:01:03;;;;;;;15.52;12.35;;;23.40;99.90;;;;;;5074065;28;20500;-69
2023/05/22 12:03:30;;;;;;;20.45;13.07;;;23.20;99.90;;;;;;5069613;28;20063;-68
2023/05/22 12:05:56;;;;;;;16.55;11.90;;;23.30;99.90;;;;;;5070563;28;20048;-68
2023/05/22 12:08:25;;;;;;;17.13;13.70;;;23.60;99.90;;;;;;5073800;28;20036;-68
2023/05/22 12:10:52;;;;;;;16.95;13.07;;;23.20;99.90;;;;;;5072781;28;20090;-68
2023/05/22 12:13:28;;;;;;;13.38;10.82;;;23.40;99.90;;;;;;5072497;28;20044;-68
2023/05/22 12:15:58;;;;;;;18.92;11.55;;;23.60;99.90;;;;;;5056866;28;20056;-68
2023/05/22 12:18:25;;;;;;;17.15;11.65;;;23.20;99.90;;;;;;5063517;28;20166;-69
2023/05/22 12:20:54;;;;;;;15.77;11.05;;;24.20;99.90;;;;;;5059855;28;20521;-69
2023/05/22 12:23:24;;;;;;;20.20;12.07;;;23.30;99.90;;;;;;5069924;28;20115;-68
2023/05/22 12:25:57;;;;;;;21.73;12.05;;;23.40;99.90;;;;;;5073162;28;20036;-68
2023/05/22 12:28:23;;;;;;;18.67;12.20;;;23.20;99.90;;;;;;5057379;28;20045;-69
2023/05/22 12:30:53;;;;;;;16.00;12.00;;;23.10;99.90;;;;;;5052621;28;20045;-68
2023/05/22 12:33:19;;;;;;;17.80;11.85;;;23.20;99.90;;;;;;5053005;28;20033;-68